createdAt,value
2019-02-25T00:00:12.836Z,51.75
2019-02-25T00:01:12.946Z,51.54
2019-02-25T00:02:12.819Z,51.75
2019-02-25T00:03:12.811Z,51.34
2019-02-25T00:04:12.795Z,51.65
2019-02-25T00:05:12.790Z,51.46
2019-02-25T00:06:12.777Z,51.54
2019-02-25T00:07:12.874Z,50.30
2019-02-25T00:08:12.758Z,49.88
2019-02-25T00:09:12.915Z,50.20
2019-02-25T00:10:12.741Z,50.30
2019-02-25T00:11:12.758Z,51.65
2019-02-25T00:12:12.796Z,52.48
2019-02-25T00:13:12.736Z,52.81
2019-02-25T00:14:12.694Z,52.40
2019-02-25T00:15:12.684Z,53.02
2019-02-25T00:16:12.673Z,53.23
2019-02-25T00:17:12.662Z,52.29
2019-02-25T00:18:12.782Z,52.40
2019-02-25T00:19:12.753Z,53.12
2019-02-25T00:20:12.678Z,53.36
2019-02-25T00:21:12.607Z,53.15
2019-02-25T00:22:12.598Z,52.29
2019-02-25T00:23:12.761Z,53.36
2019-02-25T00:24:12.588Z,50.84
2019-02-25T00:25:12.580Z,50.22
2019-02-25T00:26:12.686Z,49.70
2019-02-25T00:27:12.551Z,50.20
2019-02-25T00:28:12.547Z,48.95
2019-02-25T00:29:12.580Z,48.93
2019-02-25T00:30:12.516Z,50.09
2019-02-25T00:31:12.524Z,49.34
2019-02-25T00:32:12.572Z,50.48
2019-02-25T00:33:12.494Z,50.38
2019-02-25T00:34:12.470Z,50.38
2019-02-25T00:35:12.454Z,51.96
2019-02-25T00:36:12.464Z,51.75
2019-02-25T00:37:12.441Z,51.75
2019-02-25T00:38:12.525Z,51.75
2019-02-25T00:39:12.423Z,52.48
2019-02-25T00:40:12.414Z,53.41
2019-02-25T00:41:12.410Z,53.75
2019-02-25T00:42:12.398Z,53.33
2019-02-25T00:43:12.508Z,53.96
2019-02-25T00:44:12.361Z,54.47
2019-02-25T00:45:12.351Z,54.99
2019-02-25T00:46:12.446Z,54.50
2019-02-25T00:47:12.350Z,54.39
2019-02-25T00:48:12.332Z,56.16
2019-02-25T00:49:12.311Z,56.57
2019-02-25T00:50:12.300Z,56.57
2019-02-25T00:51:12.297Z,56.16
2019-02-25T00:52:12.790Z,56.05
2019-02-25T00:53:12.276Z,56.08
2019-02-25T00:54:12.303Z,56.29
2019-02-25T00:55:12.273Z,55.56
2019-02-25T00:56:12.247Z,55.15
2019-02-25T00:57:12.225Z,54.83
2019-02-25T00:58:12.355Z,55.25
2019-02-25T00:59:12.205Z,54.83
2019-02-25T01:00:12.183Z,55.56
2019-02-25T01:01:12.169Z,56.49
2019-02-25T01:02:12.181Z,55.87
2019-02-25T01:03:12.148Z,56.29
2019-02-25T01:04:12.320Z,55.87
2019-02-25T01:05:12.141Z,56.18
2019-02-25T01:06:12.135Z,56.18
2019-02-25T01:07:12.114Z,56.08
2019-02-25T01:08:12.101Z,55.87
2019-02-25T01:09:12.106Z,55.04
2019-02-25T01:10:12.165Z,55.15
2019-02-25T01:11:12.074Z,54.94
2019-02-25T01:12:12.076Z,56.49
2019-02-25T01:13:12.071Z,56.81
2019-02-25T01:14:12.141Z,56.60
2019-02-25T01:15:12.115Z,56.18
2019-02-25T01:16:12.132Z,57.01
2019-02-25T01:17:12.022Z,56.62
2019-02-25T01:18:11.988Z,57.01
2019-02-25T01:19:12.003Z,56.70
2019-02-25T01:20:11.974Z,58.18
2019-02-25T01:21:12.063Z,57.67
2019-02-25T01:22:11.947Z,58.18
2019-02-25T01:23:12.216Z,57.98
2019-02-25T01:24:11.921Z,57.45
2019-02-25T01:25:11.908Z,56.62
2019-02-25T01:26:11.912Z,56.21
2019-02-25T01:27:11.980Z,57.04
2019-02-25T01:28:11.985Z,57.14
2019-02-25T01:29:11.873Z,56.62
2019-02-25T01:30:11.888Z,56.73
2019-02-25T01:31:11.842Z,56.93
2019-02-25T01:32:11.878Z,57.48
2019-02-25T01:33:11.816Z,57.69
2019-02-25T01:34:11.991Z,57.69
2019-02-25T01:35:11.804Z,57.07
2019-02-25T01:36:11.790Z,57.69
2019-02-25T01:37:11.774Z,57.79
2019-02-25T01:38:11.769Z,57.79
2019-02-25T01:39:11.852Z,58.11
2019-02-25T01:40:11.758Z,57.59
2019-02-25T01:41:11.746Z,57.90
2019-02-25T01:42:11.720Z,58.31
2019-02-25T01:43:11.793Z,57.90
2019-02-25T01:44:11.699Z,58.00
2019-02-25T01:45:11.704Z,57.69
2019-02-25T01:46:11.849Z,58.21
2019-02-25T01:47:11.695Z,58.62
2019-02-25T01:48:11.667Z,58.31
2019-02-25T01:49:11.650Z,58.00
2019-02-25T01:50:11.643Z,58.31
2019-02-25T01:51:11.621Z,57.79
2019-02-25T01:52:11.782Z,58.11
2019-02-25T01:53:11.611Z,56.65
2019-02-25T01:54:11.600Z,56.65
2019-02-25T01:55:11.656Z,58.11
2019-02-25T01:56:11.561Z,57.79
2019-02-25T01:57:11.560Z,57.79
2019-02-25T01:58:11.667Z,57.45
2019-02-25T01:59:11.555Z,57.69
2019-02-25T02:00:11.549Z,57.48
2019-02-25T02:01:11.528Z,57.59
2019-02-25T02:02:11.500Z,58.08
2019-02-25T02:03:11.503Z,57.87
2019-02-25T02:04:11.641Z,57.67
2019-02-25T02:05:11.470Z,58.08
2019-02-25T02:06:11.457Z,57.87
2019-02-25T02:07:11.441Z,58.39
2019-02-25T02:08:11.451Z,58.91
2019-02-25T02:09:11.429Z,58.70
2019-02-25T02:10:11.531Z,58.73
2019-02-25T02:11:11.411Z,58.62
2019-02-25T02:12:11.395Z,58.83
2019-02-25T02:13:14.135Z,59.35
2019-02-25T02:14:11.375Z,59.56
2019-02-25T02:15:11.359Z,59.04
2019-02-25T02:16:11.375Z,59.98
2019-02-25T02:17:11.339Z,58.83
2019-02-25T02:18:11.327Z,58.83
2019-02-25T02:19:11.424Z,59.35
2019-02-25T02:20:11.310Z,58.94
2019-02-25T02:21:11.316Z,59.14
2019-02-25T02:22:11.280Z,59.98
2019-02-25T02:23:11.291Z,59.98
2019-02-25T02:24:11.268Z,59.14
2019-02-25T02:25:11.380Z,60.08
2019-02-25T02:26:11.238Z,59.98
2019-02-25T02:27:11.235Z,58.42
2019-02-25T02:28:11.259Z,57.90
2019-02-25T02:29:11.272Z,58.08
2019-02-25T02:30:11.421Z,59.53
2019-02-25T02:31:11.219Z,58.81
2019-02-25T02:32:11.182Z,58.81
2019-02-25T02:33:11.171Z,59.04
2019-02-25T02:34:11.144Z,59.33
2019-02-25T02:35:11.131Z,60.19
2019-02-25T02:36:11.798Z,60.91
2019-02-25T02:37:11.113Z,61.12
2019-02-25T02:38:11.123Z,61.64
2019-02-25T02:39:11.127Z,60.60
2019-02-25T02:40:11.091Z,60.60
2019-02-25T02:41:11.149Z,60.63
2019-02-25T02:42:11.063Z,59.80
2019-02-25T02:43:11.054Z,58.83
2019-02-25T02:44:11.037Z,59.80
2019-02-25T02:45:11.031Z,60.39
2019-02-25T02:46:11.030Z,62.16
2019-02-25T02:47:11.072Z,62.37
2019-02-25T02:48:11.086Z,63.51
2019-02-25T02:49:10.998Z,63.54
2019-02-25T02:50:11.110Z,63.75
2019-02-25T02:51:10.984Z,64.27
2019-02-25T02:52:10.966Z,65.20
2019-02-25T02:53:11.471Z,63.96
2019-02-25T02:54:11.031Z,63.12
2019-02-25T02:55:11.356Z,62.19
2019-02-25T02:56:10.919Z,60.31
2019-02-25T02:57:10.902Z,60.00
2019-02-25T02:58:10.965Z,59.14
2019-02-25T02:59:10.884Z,59.35
2019-02-25T03:00:10.866Z,59.25
2019-02-25T03:01:10.863Z,59.35
2019-02-25T03:02:10.836Z,58.94
2019-02-25T03:03:10.827Z,59.74
2019-02-25T03:04:10.935Z,60.60
2019-02-25T03:05:10.805Z,60.39
2019-02-25T03:06:10.791Z,60.91
2019-02-25T03:07:10.810Z,60.39
2019-02-25T03:08:10.781Z,60.39
2019-02-25T03:09:10.761Z,60.71
2019-02-25T03:10:10.918Z,60.71
2019-02-25T03:11:10.828Z,61.43
2019-02-25T03:12:10.733Z,62.08
2019-02-25T03:13:10.763Z,61.57
2019-02-25T03:14:10.705Z,62.29
2019-02-25T03:15:10.696Z,61.67
2019-02-25T03:16:10.876Z,62.22
2019-02-25T03:17:10.696Z,62.08
2019-02-25T03:18:10.673Z,62.32
2019-02-25T03:19:10.815Z,62.01
2019-02-25T03:20:10.678Z,62.50
2019-02-25T03:21:10.640Z,62.43
2019-02-25T03:22:10.619Z,62.63
2019-02-25T03:23:10.711Z,62.63
2019-02-25T03:24:10.610Z,62.11
2019-02-25T03:25:10.617Z,62.63
2019-02-25T03:26:10.593Z,62.84
2019-02-25T03:27:10.639Z,62.63
2019-02-25T03:28:10.575Z,62.74
2019-02-25T03:29:11.427Z,62.53
2019-02-25T03:30:10.622Z,63.46
2019-02-25T03:31:10.544Z,63.57
2019-02-25T03:32:10.513Z,64.09
2019-02-25T03:33:10.515Z,63.98
2019-02-25T03:34:10.489Z,64.19
2019-02-25T03:35:10.589Z,63.81
2019-02-25T03:36:10.488Z,63.70
2019-02-25T03:37:10.487Z,64.43
2019-02-25T03:38:10.462Z,64.43
2019-02-25T03:39:10.551Z,64.75
2019-02-25T03:40:10.528Z,64.53
2019-02-25T03:41:10.423Z,63.70
2019-02-25T03:42:10.429Z,63.39
2019-02-25T03:43:11.186Z,63.91
2019-02-25T03:44:10.425Z,63.70
2019-02-25T03:45:10.378Z,64.22
2019-02-25T03:46:10.501Z,64.22
2019-02-25T03:47:10.367Z,64.32
2019-02-25T03:48:10.358Z,64.22
2019-02-25T03:49:10.347Z,64.32
2019-02-25T03:50:10.328Z,64.15
2019-02-25T03:51:10.315Z,64.46
2019-02-25T03:52:10.379Z,64.75
2019-02-25T03:53:10.310Z,64.25
2019-02-25T03:54:10.296Z,64.46
2019-02-25T03:55:10.288Z,64.36
2019-02-25T03:56:10.256Z,64.32
2019-02-25T03:57:10.241Z,64.64
2019-02-25T03:58:10.349Z,64.15
2019-02-25T03:59:10.225Z,64.25
2019-02-25T04:00:10.340Z,65.30
2019-02-25T04:01:10.536Z,64.98
2019-02-25T04:02:10.265Z,64.67
2019-02-25T04:03:10.223Z,64.98
2019-02-25T04:04:10.419Z,65.09
2019-02-25T04:05:10.167Z,65.19
2019-02-25T04:06:10.157Z,66.02
2019-02-25T04:07:10.144Z,65.30
2019-02-25T04:08:10.300Z,65.74
2019-02-25T04:09:10.120Z,65.22
2019-02-25T04:10:10.110Z,65.43
2019-02-25T04:11:10.109Z,65.19
2019-02-25T04:12:10.098Z,65.64
2019-02-25T04:13:10.121Z,66.02
2019-02-25T04:14:10.166Z,66.26
2019-02-25T04:15:10.090Z,65.64
2019-02-25T04:16:10.145Z,65.64
2019-02-25T04:17:10.538Z,66.16
2019-02-25T04:18:10.109Z,66.36
2019-02-25T04:19:10.234Z,66.57
2019-02-25T04:20:10.013Z,67.30
2019-02-25T04:21:10.006Z,67.72
2019-02-25T04:22:09.993Z,67.82
2019-02-25T04:23:09.972Z,67.72
2019-02-25T04:24:09.958Z,67.93
2019-02-25T04:25:10.038Z,68.24
2019-02-25T04:26:09.932Z,68.03
2019-02-25T04:27:09.922Z,68.27
2019-02-25T04:28:09.924Z,67.93
2019-02-25T04:29:09.920Z,67.82
2019-02-25T04:30:09.909Z,67.72
2019-02-25T04:31:09.950Z,67.51
2019-02-25T04:32:09.882Z,67.65
2019-02-25T04:33:09.896Z,68.03
2019-02-25T04:34:09.854Z,67.93
2019-02-25T04:35:09.842Z,67.93
2019-02-25T04:36:09.909Z,67.82
2019-02-25T04:37:09.823Z,68.24
2019-02-25T04:38:09.810Z,68.35
2019-02-25T04:39:09.817Z,68.97
2019-02-25T04:40:09.794Z,69.21
2019-02-25T04:41:09.784Z,69.59
2019-02-25T04:42:09.844Z,70.01
2019-02-25T04:43:09.838Z,70.43
2019-02-25T04:44:09.736Z,70.36
2019-02-25T04:45:09.739Z,70.15
2019-02-25T04:46:09.736Z,70.36
2019-02-25T04:47:09.712Z,70.04
2019-02-25T04:48:09.881Z,69.73
2019-02-25T04:49:09.687Z,69.84
2019-02-25T04:50:09.732Z,69.42
2019-02-25T04:51:09.672Z,70.04
2019-02-25T04:52:09.681Z,70.25
2019-02-25T04:53:09.666Z,70.15
2019-02-25T04:54:09.952Z,70.46
2019-02-25T04:55:09.731Z,70.46
2019-02-25T04:56:09.626Z,69.91
2019-02-25T04:57:09.604Z,69.38
2019-02-25T04:58:09.593Z,68.97
2019-02-25T04:59:09.581Z,68.87
2019-02-25T05:00:09.681Z,68.87
2019-02-25T05:01:09.560Z,68.17
2019-02-25T05:02:10.559Z,68.13
2019-02-25T05:03:09.548Z,68.13
2019-02-25T05:04:09.545Z,69.00
2019-02-25T05:05:09.650Z,69.49
2019-02-25T05:06:09.605Z,69.31
2019-02-25T05:07:09.573Z,69.70
2019-02-25T05:08:09.478Z,69.84
2019-02-25T05:09:09.496Z,70.15
2019-02-25T05:10:09.467Z,69.53
2019-02-25T05:11:09.568Z,69.10
2019-02-25T05:12:09.545Z,68.27
2019-02-25T05:13:09.435Z,68.27
2019-02-25T05:14:09.457Z,67.96
2019-02-25T05:15:09.958Z,68.27
2019-02-25T05:16:09.418Z,69.00
2019-02-25T05:17:09.409Z,69.63
2019-02-25T05:18:09.379Z,69.73
2019-02-25T05:19:09.372Z,69.73
2019-02-25T05:20:09.363Z,69.84
2019-02-25T05:21:09.472Z,70.50
2019-02-25T05:22:09.462Z,70.07
2019-02-25T05:23:09.325Z,69.76
2019-02-25T05:24:09.314Z,69.66
2019-02-25T05:25:09.298Z,70.07
2019-02-25T05:26:09.314Z,70.28
2019-02-25T05:27:09.302Z,70.28
2019-02-25T05:28:09.944Z,70.50
2019-02-25T05:29:09.249Z,70.28
2019-02-25T05:30:09.242Z,70.50
2019-02-25T05:31:09.242Z,70.39
2019-02-25T05:32:09.229Z,70.18
2019-02-25T05:33:09.406Z,70.60
2019-02-25T05:34:09.250Z,70.28
2019-02-25T05:35:09.242Z,70.50
2019-02-25T05:36:09.219Z,70.39
2019-02-25T05:37:09.234Z,70.21
2019-02-25T05:38:09.204Z,70.28
2019-02-25T05:39:09.409Z,70.50
2019-02-25T05:40:09.270Z,70.28
2019-02-25T05:41:09.128Z,70.28
2019-02-25T05:42:09.115Z,70.50
2019-02-25T05:43:09.502Z,70.81
2019-02-25T05:44:10.081Z,71.12
2019-02-25T05:45:09.099Z,71.75
2019-02-25T05:46:09.104Z,71.22
2019-02-25T05:47:09.059Z,71.47
2019-02-25T05:48:09.070Z,71.53
2019-02-25T05:49:09.046Z,72.09
2019-02-25T05:50:09.139Z,71.78
2019-02-25T05:51:09.021Z,71.88
2019-02-25T05:52:09.007Z,71.64
2019-02-25T05:53:08.986Z,71.67
2019-02-25T05:54:09.025Z,71.88
2019-02-25T05:55:08.998Z,71.98
2019-02-25T05:56:09.252Z,71.98
2019-02-25T05:57:08.970Z,71.88
2019-02-25T05:58:08.942Z,71.57
2019-02-25T05:59:08.929Z,71.88
2019-02-25T06:00:08.916Z,71.88
2019-02-25T06:01:08.927Z,71.57
2019-02-25T06:02:08.989Z,71.88
2019-02-25T06:03:08.900Z,72.16
2019-02-25T06:04:08.875Z,72.09
2019-02-25T06:05:08.867Z,71.98
2019-02-25T06:06:08.936Z,71.98
2019-02-25T06:07:10.430Z,72.09
2019-02-25T06:08:08.953Z,71.78
2019-02-25T06:09:08.820Z,71.88
2019-02-25T06:10:08.814Z,71.98
2019-02-25T06:11:08.803Z,71.98
2019-02-25T06:12:08.785Z,72.30
2019-02-25T06:13:08.996Z,71.88
2019-02-25T06:14:09.044Z,71.95
2019-02-25T06:15:08.769Z,72.09
2019-02-25T06:16:08.906Z,71.95
2019-02-25T06:17:08.813Z,72.06
2019-02-25T06:18:08.792Z,72.37
2019-02-25T06:19:08.943Z,71.85
2019-02-25T06:20:08.715Z,72.06
2019-02-25T06:21:08.697Z,72.06
2019-02-25T06:22:08.682Z,72.37
2019-02-25T06:23:08.680Z,72.13
2019-02-25T06:24:08.680Z,72.13
2019-02-25T06:25:08.868Z,72.02
2019-02-25T06:26:08.719Z,72.13
2019-02-25T06:27:08.646Z,72.34
2019-02-25T06:28:08.624Z,71.71
2019-02-25T06:29:08.606Z,71.58
2019-02-25T06:30:08.626Z,72.09
2019-02-25T06:31:08.680Z,72.13
2019-02-25T06:32:08.603Z,71.78
2019-02-25T06:33:09.190Z,71.58
2019-02-25T06:34:08.566Z,71.78
2019-02-25T06:35:08.549Z,71.16
2019-02-25T06:36:08.644Z,70.74
2019-02-25T06:37:08.524Z,70.95
2019-02-25T06:38:08.519Z,70.84
2019-02-25T06:39:08.499Z,70.29
2019-02-25T06:40:08.487Z,71.33
2019-02-25T06:41:09.230Z,71.75
2019-02-25T06:42:08.565Z,70.92
2019-02-25T06:43:08.580Z,70.57
2019-02-25T06:44:08.447Z,70.71
2019-02-25T06:45:08.487Z,70.99
2019-02-25T06:46:08.456Z,70.78
2019-02-25T06:47:08.482Z,70.36
2019-02-25T06:48:08.391Z,70.23
2019-02-25T06:49:08.585Z,69.92
2019-02-25T06:50:09.253Z,69.71
2019-02-25T06:51:08.581Z,70.23
2019-02-25T06:52:08.406Z,69.81
2019-02-25T06:53:08.420Z,69.57
2019-02-25T06:54:08.486Z,68.74
2019-02-25T06:55:08.471Z,68.01
2019-02-25T06:56:08.565Z,68.01
2019-02-25T06:57:08.393Z,68.43
2019-02-25T06:58:08.537Z,67.98
2019-02-25T06:59:08.370Z,68.19
2019-02-25T07:00:08.441Z,68.08
2019-02-25T07:01:08.386Z,67.98
2019-02-25T07:02:08.680Z,67.64
2019-02-25T07:03:08.390Z,67.43
2019-02-25T07:04:08.487Z,67.54
2019-02-25T07:05:08.388Z,67.64
2019-02-25T07:06:08.457Z,67.43
2019-02-25T07:07:08.375Z,67.22
2019-02-25T07:08:08.707Z,67.40
2019-02-25T07:09:08.377Z,67.09
2019-02-25T07:10:08.395Z,66.36
2019-02-25T07:11:08.394Z,65.32
2019-02-25T07:12:08.701Z,64.67
2019-02-25T07:13:08.355Z,63.21
2019-02-25T07:14:08.600Z,62.38
2019-02-25T07:15:08.414Z,61.94
2019-02-25T07:16:08.458Z,61.01
2019-02-25T07:17:08.410Z,60.05
2019-02-25T07:18:08.415Z,59.01
2019-02-25T07:19:08.696Z,59.81
2019-02-25T07:20:08.381Z,59.42
2019-02-25T07:21:08.405Z,59.09
2019-02-25T07:22:08.405Z,58.05
2019-02-25T07:23:08.444Z,57.30
2019-02-25T07:24:08.418Z,56.57
2019-02-25T07:25:09.426Z,56.37
2019-02-25T07:26:08.314Z,56.03
2019-02-25T07:27:08.154Z,55.30
2019-02-25T07:28:07.963Z,55.20
2019-02-25T07:29:07.960Z,54.45
2019-02-25T07:30:07.956Z,55.18
2019-02-25T07:31:08.606Z,54.11
2019-02-25T07:32:07.931Z,53.49
2019-02-25T07:33:07.931Z,53.91
2019-02-25T07:34:07.901Z,53.47
2019-02-25T07:35:08.585Z,52.95
2019-02-25T07:36:07.942Z,52.31
2019-02-25T07:37:07.979Z,52.70
2019-02-25T07:38:07.865Z,51.64
2019-02-25T07:39:07.839Z,50.66
2019-02-25T07:40:07.835Z,48.43
2019-02-25T07:41:08.384Z,47.62
2019-02-25T07:42:07.821Z,44.23
2019-02-25T07:43:07.924Z,41.05
2019-02-25T07:44:07.794Z,38.71
2019-02-25T07:45:08.856Z,36.51
2019-02-25T07:46:07.784Z,34.20
2019-02-25T07:47:07.759Z,33.04
2019-02-25T07:48:07.953Z,31.15
2019-02-25T07:49:07.739Z,28.66
2019-02-25T07:50:07.735Z,28.12
2019-02-25T07:51:07.711Z,26.89
2019-02-25T07:52:07.734Z,26.26
2019-02-25T07:53:09.865Z,24.93
2019-02-25T07:54:07.707Z,25.85
2019-02-25T07:55:07.693Z,25.62
2019-02-25T07:56:07.700Z,25.01
2019-02-25T07:57:07.650Z,24.29
2019-02-25T07:58:07.740Z,24.08
2019-02-25T07:59:07.695Z,23.97
2019-02-25T08:00:28.627Z,23.25
2019-02-25T08:01:07.776Z,23.14
2019-02-25T08:02:07.753Z,22.52
2019-02-25T08:03:07.575Z,22.86
2019-02-25T08:04:07.571Z,23.57
2019-02-25T08:05:07.599Z,23.86
2019-02-25T08:06:07.748Z,22.95
2019-02-25T08:07:07.536Z,22.76
2019-02-25T08:08:07.834Z,22.96
2019-02-25T08:09:07.534Z,24.18
2019-02-25T08:10:07.506Z,23.57
2019-02-25T08:11:07.497Z,23.15
2019-02-25T08:12:07.491Z,22.42
2019-02-25T08:13:07.619Z,21.41
2019-02-25T08:14:07.458Z,21.40
2019-02-25T08:15:08.941Z,21.90
2019-02-25T08:16:07.441Z,21.37
2019-02-25T08:17:07.431Z,21.57
2019-02-25T08:18:07.545Z,19.75
2019-02-25T08:19:07.404Z,19.75
2019-02-25T08:20:07.395Z,19.27
2019-02-25T08:21:07.378Z,21.29
2019-02-25T08:22:07.375Z,21.48
2019-02-25T08:23:07.373Z,20.45
2019-02-25T08:24:07.476Z,20.12
2019-02-25T08:25:07.398Z,19.92
2019-02-25T08:26:07.324Z,18.91
2019-02-25T08:27:07.316Z,19.31
2019-02-25T08:28:07.318Z,19.60
2019-02-25T08:29:07.303Z,18.99
2019-02-25T08:30:07.418Z,19.08
2019-02-25T08:31:09.189Z,17.98
2019-02-25T08:32:07.269Z,19.38
2019-02-25T08:33:07.249Z,19.51
2019-02-25T08:34:07.241Z,19.53
2019-02-25T08:35:07.253Z,20.86
2019-02-25T08:36:07.455Z,21.37
2019-02-25T08:37:07.264Z,20.87
2019-02-25T08:38:07.331Z,21.25
2019-02-25T08:39:07.220Z,20.12
2019-02-25T08:40:07.224Z,19.60
2019-02-25T08:41:07.194Z,19.20
2019-02-25T08:42:07.636Z,19.20
2019-02-25T08:43:07.142Z,18.99
2019-02-25T08:44:07.136Z,19.49
2019-02-25T08:45:08.263Z,19.78
2019-02-25T08:46:07.111Z,19.08
2019-02-25T08:47:07.089Z,18.88
2019-02-25T08:48:07.223Z,19.17
2019-02-25T08:49:07.075Z,18.35
2019-02-25T08:50:07.065Z,17.64
2019-02-25T08:51:07.046Z,18.01
2019-02-25T08:52:07.038Z,16.50
2019-02-25T08:53:07.124Z,16.51
2019-02-25T08:54:07.066Z,16.33
2019-02-25T08:55:07.019Z,17.42
2019-02-25T08:56:06.997Z,17.51
2019-02-25T08:57:06.984Z,17.41
2019-02-25T08:58:06.965Z,16.52
2019-02-25T08:59:07.135Z,16.42
2019-02-25T09:00:06.952Z,17.52
2019-02-25T09:01:06.952Z,16.33
2019-02-25T09:02:06.930Z,17.32
2019-02-25T09:03:06.940Z,16.59
2019-02-25T09:04:07.008Z,16.39
2019-02-25T09:05:06.926Z,15.59
2019-02-25T09:06:06.887Z,16.10
2019-02-25T09:07:06.882Z,16.43
2019-02-25T09:08:06.867Z,16.42
2019-02-25T09:09:06.968Z,16.00
2019-02-25T09:10:06.938Z,15.39
2019-02-25T09:11:13.911Z,15.19
2019-02-25T09:12:07.807Z,14.78
2019-02-25T09:13:06.795Z,15.18
2019-02-25T09:14:06.869Z,14.68
2019-02-25T09:15:06.794Z,15.36
2019-02-25T09:16:07.096Z,14.07
2019-02-25T09:17:06.783Z,14.47
2019-02-25T09:18:06.772Z,14.16
2019-02-25T09:19:06.744Z,14.36
2019-02-25T09:20:06.732Z,14.16
2019-02-25T09:21:08.183Z,14.47
2019-02-25T09:22:06.880Z,13.87
2019-02-25T09:23:06.693Z,14.47
2019-02-25T09:24:06.679Z,14.67
2019-02-25T09:25:06.663Z,14.56
2019-02-25T09:26:06.661Z,14.36
2019-02-25T09:27:06.767Z,14.46
2019-02-25T09:28:06.636Z,14.36
2019-02-25T09:29:06.636Z,14.26
2019-02-25T09:30:06.638Z,14.26
2019-02-25T09:31:06.891Z,14.75
2019-02-25T09:32:06.601Z,14.44
2019-02-25T09:33:06.576Z,13.65
2019-02-25T09:34:06.579Z,14.13
2019-02-25T09:35:06.587Z,13.94
2019-02-25T09:36:06.547Z,14.24
2019-02-25T09:37:06.730Z,13.75
2019-02-25T09:38:06.652Z,14.15
2019-02-25T09:39:06.509Z,14.34
2019-02-25T09:40:06.497Z,14.44
2019-02-25T09:41:06.495Z,14.84
2019-02-25T09:42:06.496Z,14.15
2019-02-25T09:43:06.481Z,14.54
2019-02-25T09:44:06.591Z,14.25
2019-02-25T09:45:06.454Z,14.15
2019-02-25T09:46:06.820Z,14.34
2019-02-25T09:47:06.434Z,14.34
2019-02-25T09:48:06.558Z,14.34
2019-02-25T09:49:06.419Z,14.74
2019-02-25T09:50:06.544Z,15.13
2019-02-25T09:51:06.447Z,15.03
2019-02-25T09:52:06.373Z,14.82
2019-02-25T09:53:07.347Z,14.33
2019-02-25T09:54:06.352Z,15.42
2019-02-25T09:55:06.446Z,15.51
2019-02-25T09:56:06.373Z,15.31
2019-02-25T09:57:06.319Z,15.41
2019-02-25T09:58:06.530Z,15.20
2019-02-25T09:59:06.315Z,14.91
2019-02-25T10:00:06.297Z,14.90
2019-02-25T10:01:06.439Z,15.28
2019-02-25T10:02:06.268Z,15.08
2019-02-25T10:03:06.279Z,15.08
2019-02-25T10:04:06.247Z,14.98
2019-02-25T10:05:06.285Z,15.49
2019-02-25T10:06:06.221Z,15.48
2019-02-25T10:07:06.459Z,14.61
2019-02-25T10:08:06.206Z,15.69
2019-02-25T10:09:06.187Z,15.69
2019-02-25T10:10:06.183Z,15.59
2019-02-25T10:11:06.171Z,16.30
2019-02-25T10:12:06.158Z,16.12
2019-02-25T10:13:11.536Z,17.43
2019-02-25T10:14:06.166Z,17.44
2019-02-25T10:15:06.115Z,18.85
2019-02-25T10:16:06.130Z,19.24
2019-02-25T10:17:06.105Z,18.54
2019-02-25T10:18:06.095Z,18.54
2019-02-25T10:19:06.201Z,18.93
2019-02-25T10:20:06.064Z,17.93
2019-02-25T10:21:06.064Z,17.31
2019-02-25T10:22:06.047Z,17.19
2019-02-25T10:23:06.040Z,17.00
2019-02-25T10:24:06.028Z,16.90
2019-02-25T10:25:06.104Z,17.69
2019-02-25T10:26:06.002Z,17.00
2019-02-25T10:27:06.434Z,17.30
2019-02-25T10:28:05.997Z,17.50
2019-02-25T10:29:05.993Z,17.69
2019-02-25T10:30:05.978Z,17.29
2019-02-25T10:31:05.947Z,17.08
2019-02-25T10:32:06.547Z,17.39
2019-02-25T10:33:06.190Z,17.07
2019-02-25T10:34:07.586Z,16.28
2019-02-25T10:35:06.026Z,16.09
2019-02-25T10:36:06.871Z,16.97
2019-02-25T10:37:06.100Z,17.65
2019-02-25T10:38:05.874Z,17.35
2019-02-25T10:39:05.914Z,17.83
2019-02-25T10:40:05.987Z,16.24
2019-02-25T10:41:05.869Z,16.43
2019-02-25T10:42:05.818Z,15.83
2019-02-25T10:43:05.852Z,15.13
2019-02-25T10:44:06.544Z,15.73
2019-02-25T10:45:07.239Z,15.73
2019-02-25T10:46:06.959Z,15.54
2019-02-25T10:47:05.785Z,15.63
2019-02-25T10:48:05.786Z,15.92
2019-02-25T10:49:11.612Z,15.62
2019-02-25T10:50:07.446Z,15.22
2019-02-25T10:51:07.045Z,14.73
2019-02-25T10:52:07.067Z,15.63
2019-02-25T10:53:05.714Z,16.43
2019-02-25T10:54:05.739Z,17.24
2019-02-25T10:55:05.678Z,17.44
2019-02-25T10:56:05.674Z,17.13
2019-02-25T10:57:05.693Z,17.33
2019-02-25T10:58:05.812Z,18.25
2019-02-25T10:59:06.245Z,18.26
2019-02-25T11:00:07.380Z,19.13
2019-02-25T11:01:07.224Z,18.05
2019-02-25T11:02:05.606Z,17.14
2019-02-25T11:03:05.597Z,17.43
2019-02-25T11:04:05.686Z,17.43
2019-02-25T11:05:05.680Z,17.24
2019-02-25T11:06:05.555Z,17.14
2019-02-25T11:07:07.399Z,17.44
2019-02-25T11:08:07.365Z,19.13
2019-02-25T11:09:07.011Z,18.96
2019-02-25T11:10:05.515Z,19.05
2019-02-25T11:11:05.677Z,18.54
2019-02-25T11:12:05.603Z,18.83
2019-02-25T11:13:05.492Z,17.75
2019-02-25T11:14:07.081Z,18.54
2019-02-25T11:15:07.395Z,19.43
2019-02-25T11:16:05.452Z,18.74
2019-02-25T11:17:05.575Z,19.34
2019-02-25T11:18:05.427Z,19.36
2019-02-25T11:19:05.428Z,19.26
2019-02-25T11:20:05.732Z,18.96
2019-02-25T11:21:06.144Z,18.66
2019-02-25T11:22:07.333Z,18.85
2019-02-25T11:23:05.462Z,19.54
2019-02-25T11:24:05.379Z,18.87
2019-02-25T11:25:05.360Z,19.66
2019-02-25T11:26:05.423Z,19.26
2019-02-25T11:27:07.203Z,18.96
2019-02-25T11:28:07.633Z,19.46
2019-02-25T11:29:06.068Z,19.56
2019-02-25T11:30:05.374Z,18.66
2019-02-25T11:31:05.336Z,18.57
2019-02-25T11:32:05.358Z,18.48
2019-02-25T11:33:05.317Z,19.17
2019-02-25T11:34:06.432Z,19.96
2019-02-25T11:35:06.305Z,18.98
2019-02-25T11:36:05.292Z,19.76
2019-02-25T11:37:05.227Z,19.45
2019-02-25T11:38:05.258Z,19.35
2019-02-25T11:39:07.012Z,19.64
2019-02-25T11:40:05.410Z,18.27
2019-02-25T11:41:07.140Z,20.26
2019-02-25T11:42:06.154Z,19.66
2019-02-25T11:43:05.823Z,19.36
2019-02-25T11:44:05.158Z,19.74
2019-02-25T11:45:05.139Z,17.96
2019-02-25T11:46:05.249Z,19.43
2019-02-25T11:47:05.271Z,18.84
2019-02-25T11:48:05.131Z,19.15
2019-02-25T11:49:05.200Z,18.07
2019-02-25T11:50:05.085Z,19.76
2019-02-25T11:51:05.082Z,18.46
2019-02-25T11:52:05.074Z,19.34
2019-02-25T11:53:05.045Z,19.65
2019-02-25T11:54:05.145Z,19.85
2019-02-25T11:55:05.050Z,20.84
2019-02-25T11:56:05.025Z,20.65
2019-02-25T11:57:05.011Z,19.54
2019-02-25T11:58:05.004Z,19.44
2019-02-25T11:59:04.983Z,19.84
2019-02-25T12:00:05.135Z,19.13
2019-02-25T12:01:05.049Z,19.43
2019-02-25T12:02:04.956Z,19.93
2019-02-25T12:03:04.935Z,19.63
2019-02-25T12:04:04.963Z,19.82
2019-02-25T12:05:05.041Z,19.82
2019-02-25T12:06:04.932Z,19.73
2019-02-25T12:07:04.898Z,19.43
2019-02-25T12:08:04.910Z,20.43
2019-02-25T12:09:04.902Z,20.55
2019-02-25T12:10:04.891Z,20.06
2019-02-25T12:11:04.982Z,20.76
2019-02-25T12:12:04.839Z,21.06
2019-02-25T12:13:04.827Z,21.36
2019-02-25T12:14:04.845Z,21.85
2019-02-25T12:15:04.987Z,21.56
2019-02-25T12:16:04.825Z,21.06
2019-02-25T12:17:04.834Z,21.46
2019-02-25T12:18:04.777Z,21.06
2019-02-25T12:19:04.776Z,21.55
2019-02-25T12:20:04.764Z,21.36
2019-02-25T12:21:05.029Z,22.15
2019-02-25T12:22:04.734Z,22.06
2019-02-25T12:23:04.718Z,22.06
2019-02-25T12:24:04.739Z,22.77
2019-02-25T12:25:05.618Z,22.37
2019-02-25T12:26:04.693Z,22.56
2019-02-25T12:27:04.805Z,22.86
2019-02-25T12:28:04.662Z,22.88
2019-02-25T12:29:10.885Z,23.18
2019-02-25T12:30:05.644Z,23.18
2019-02-25T12:31:04.769Z,23.37
2019-02-25T12:32:04.640Z,22.67
2019-02-25T12:33:04.627Z,22.06
2019-02-25T12:34:04.622Z,21.36
2019-02-25T12:35:04.610Z,22.38
2019-02-25T12:36:04.590Z,22.28
2019-02-25T12:37:05.876Z,22.59
2019-02-25T12:38:04.581Z,22.49
2019-02-25T12:39:04.547Z,22.59
2019-02-25T12:40:04.535Z,22.69
2019-02-25T12:41:04.530Z,22.89
2019-02-25T12:42:04.630Z,23.39
2019-02-25T12:43:04.506Z,23.00
2019-02-25T12:44:04.523Z,23.41
2019-02-25T12:45:04.515Z,22.92
2019-02-25T12:46:04.482Z,23.30
2019-02-25T12:47:04.469Z,23.49
2019-02-25T12:48:04.580Z,23.39
2019-02-25T12:49:04.466Z,23.19
2019-02-25T12:50:04.463Z,23.80
2019-02-25T12:51:04.422Z,23.72
2019-02-25T12:52:04.402Z,23.23